Time;durP1;ratioP1;P1;durP2;ratioP2;P2;SDS_P1;SDS_P2;PMS_P1;PMS_P2;Temp;Humidity;BMP_temperature;BMP_pressure;BME280_temperature;BME280_humidity;BME280_pressure;Samples;Min_cycle;Max_cycle;Signal;HPM_P1;HPM_P2
2022/03/12 00:00:18;;;;;;;20.40;14.20;;;;;;;5.74;59.38;96687.63;5044377;28;20235;-56
2022/03/12 00:02:45;;;;;;;19.20;14.47;;;;;;;5.80;58.80;96688.00;5042908;28;20218;-55
2022/03/12 00:05:13;;;;;;;18.13;13.30;;;;;;;5.80;59.48;96698.50;5043394;28;20213;-56
2022/03/12 00:07:42;;;;;;;17.17;13.60;;;;;;;5.78;58.69;96697.75;5043301;28;20273;-55
2022/03/12 00:10:12;;;;;;;18.87;14.77;;;;;;;5.75;58.98;96703.25;5043199;28;20227;-56
2022/03/12 00:12:39;;;;;;;17.07;13.03;;;;;;;5.77;59.64;96711.00;5043069;28;20253;-55
2022/03/12 00:15:11;;;;;;;16.80;13.30;;;;;;;5.75;59.25;96705.03;5044530;28;20204;-56
2022/03/12 00:17:39;;;;;;;15.30;13.00;;;;;;;5.76;58.81;96712.78;5044620;28;20277;-56
2022/03/12 00:20:12;;;;;;;15.33;11.57;;;;;;;5.73;58.22;96712.19;5043771;28;20211;-56
2022/03/12 00:22:41;;;;;;;15.43;11.53;;;;;;;5.74;58.87;96713.88;5042924;28;20262;-56
2022/03/12 00:25:10;;;;;;;15.77;11.10;;;;;;;5.74;58.39;96711.25;5042010;28;20232;-55
2022/03/12 00:27:41;;;;;;;13.17;11.17;;;;;;;5.73;58.56;96723.53;5042907;28;21350;-54
2022/03/12 00:30:11;;;;;;;15.03;11.63;;;;;;;5.74;58.24;96726.97;5043114;28;20222;-56
2022/03/12 00:32:38;;;;;;;15.40;11.50;;;;;;;5.77;58.00;96722.34;5042948;28;20203;-55
2022/03/12 00:35:08;;;;;;;13.97;10.90;;;;;;;5.79;58.04;96727.47;5043274;28;20195;-56
2022/03/12 00:37:35;;;;;;;14.47;11.30;;;;;;;5.78;58.55;96731.03;5043419;28;20654;-55
2022/03/12 00:40:02;;;;;;;15.30;12.47;;;;;;;5.78;58.23;96731.88;5041199;28;20220;-54
2022/03/12 00:42:30;;;;;;;14.63;12.00;;;;;;;5.84;58.05;96730.59;5042842;28;20214;-55
2022/03/12 00:44:56;;;;;;;16.50;13.20;;;;;;;5.87;58.58;96720.75;5044383;28;20205;-56
2022/03/12 00:47:26;;;;;;;13.23;11.27;;;;;;;5.83;58.75;96718.44;5043289;28;20215;-53
2022/03/12 00:49:53;;;;;;;13.63;11.93;;;;;;;5.81;59.29;96715.91;5042210;28;20631;-55
2022/03/12 00:52:20;;;;;;;15.87;12.73;;;;;;;5.84;58.92;96720.94;5043480;28;20250;-56
2022/03/12 00:54:47;;;;;;;16.20;11.77;;;;;;;5.87;58.52;96720.75;5043141;28;20204;-56
2022/03/12 00:57:14;;;;;;;15.50;11.93;;;;;;;5.94;58.57;96719.34;5042222;28;20518;-55
2022/03/12 00:59:41;;;;;;;14.73;11.57;;;;;;;5.97;58.43;96721.75;5042031;28;20546;-55
2022/03/12 01:02:10;;;;;;;16.20;13.30;;;;;;;5.88;60.72;96727.66;5042305;28;20204;-55
2022/03/12 01:04:38;;;;;;;14.37;11.33;;;;;;;5.88;60.03;96719.78;5042402;28;20668;-55
2022/03/12 01:07:05;;;;;;;14.57;11.93;;;;;;;5.93;59.84;96720.28;5042913;28;20195;-55
2022/03/12 01:09:31;;;;;;;16.33;12.53;;;;;;;5.96;59.78;96720.06;5042810;28;20215;-56
2022/03/12 01:11:58;;;;;;;16.50;13.00;;;;;;;5.96;59.49;96717.44;5041491;28;20631;-57
2022/03/12 01:14:25;;;;;;;14.80;12.30;;;;;;;6.00;59.88;96723.31;5042449;28;20218;-56
2022/03/12 01:16:57;;;;;;;16.40;12.97;;;;;;;5.94;61.85;96727.22;5042492;28;20214;-56
2022/03/12 01:19:23;;;;;;;15.13;13.07;;;;;;;5.97;61.18;96729.63;5047824;28;20207;-57
2022/03/12 01:21:51;;;;;;;14.80;12.60;;;;;;;5.95;61.14;96730.69;5061100;28;20196;-57
2022/03/12 01:24:18;;;;;;;14.50;12.43;;;;;;;6.01;60.22;96732.84;5061249;28;20463;-55
2022/03/12 01:26:45;;;;;;;16.83;12.20;;;;;;;6.01;60.46;96727.59;5048185;28;20206;-56
2022/03/12 01:29:11;;;;;;;16.60;12.87;;;;;;;5.98;61.27;96728.69;5045024;28;20210;-56
2022/03/12 01:31:41;;;;;;;15.77;12.80;;;;;;;5.97;61.17;96737.50;5043395;28;20219;-55
2022/03/12 01:34:08;;;;;;;15.27;12.77;;;;;;;5.99;61.01;96732.13;5042600;28;20207;-54
2022/03/12 01:36:34;;;;;;;16.27;12.80;;;;;;;5.92;62.44;96734.34;5042773;28;20211;-57
2022/03/12 01:39:02;;;;;;;15.37;12.30;;;;;;;5.83;63.14;96729.75;5042895;28;20217;-56
2022/03/12 01:41:30;;;;;;;15.37;13.20;;;;;;;5.85;63.07;96725.22;5043766;28;20207;-56
2022/03/12 01:43:58;;;;;;;17.73;13.50;;;;;;;5.81;63.52;96718.53;5048579;28;20204;-57
2022/03/12 01:46:31;;;;;;;17.73;13.87;;;;;;;5.77;63.42;96714.47;5048313;28;20207;-57
2022/03/12 01:48:59;;;;;;;17.23;13.00;;;;;;;5.72;62.80;96721.84;5044580;28;20191;-57
2022/03/12 01:51:26;;;;;;;16.90;13.33;;;;;;;5.80;62.74;96724.75;5041158;28;20316;-55
2022/03/12 01:53:54;;;;;;;16.13;13.37;;;;;;;5.83;62.77;96716.66;5042555;28;20207;-57
2022/03/12 01:56:29;;;;;;;15.47;12.90;;;;;;;5.85;62.37;96722.59;5042207;28;20214;-56
2022/03/12 01:58:57;;;;;;;18.53;14.40;;;;;;;5.87;61.93;96715.50;5041173;28;20238;-57
2022/03/12 02:01:27;;;;;;;15.83;12.93;;;;;;;5.90;61.46;96723.16;5042328;28;20196;-57
2022/03/12 02:03:54;;;;;;;18.10;14.73;;;;;;;5.88;61.75;96716.34;5040526;28;20199;-57
2022/03/12 02:06:21;;;;;;;17.43;14.20;;;;;;;5.87;61.69;96714.66;5041994;28;20207;-57
2022/03/12 02:08:49;;;;;;;20.67;15.87;;;;;;;5.89;61.31;96716.22;5042046;28;20203;-57
2022/03/12 02:11:27;;;;;;;18.73;13.97;;;;;;;5.87;61.15;96715.50;5041517;28;20227;-56
2022/03/12 02:13:58;;;;;;;16.03;13.50;;;;;;;5.88;61.46;96714.53;5040967;28;20219;-56
2022/03/12 02:16:25;;;;;;;18.73;14.67;;;;;;;5.85;61.82;96716.50;5041135;28;20233;-57
2022/03/12 02:18:52;;;;;;;20.70;14.73;;;;;;;5.79;62.42;96715.19;5040406;28;20241;-57
2022/03/12 02:21:31;;;;;;;18.77;14.97;;;;;;;5.73;62.07;96713.03;5041761;28;20213;-57
2022/03/12 02:23:59;;;;;;;18.67;14.87;;;;;;;5.76;61.64;96711.94;5042785;28;20200;-56
2022/03/12 02:26:25;;;;;;;20.13;14.33;;;;;;;5.75;61.53;96705.88;5044234;28;20222;-56
2022/03/12 02:28:52;;;;;;;18.53;14.37;;;;;;;5.75;61.30;96712.88;5043568;28;20286;-52
2022/03/12 02:31:19;;;;;;;18.73;14.53;;;;;;;5.77;61.72;96717.09;5066723;28;20635;-54
2022/03/12 02:33:46;;;;;;;18.27;14.67;;;;;;;5.74;61.84;96714.66;5066700;28;20202;-54
2022/03/12 02:36:13;;;;;;;18.67;14.73;;;;;;;5.73;62.25;96712.19;5059963;28;20206;-54
2022/03/12 02:38:42;;;;;;;20.30;15.03;;;;;;;5.75;61.94;96716.34;5046299;28;20268;-54
2022/03/12 02:41:11;;;;;;;17.13;13.83;;;;;;;5.74;61.93;96712.06;5044892;28;21358;-54
2022/03/12 02:43:43;;;;;;;19.70;14.80;;;;;;;5.73;62.32;96714.81;5045466;28;20356;-52
2022/03/12 02:46:10;;;;;;;18.53;14.53;;;;;;;5.73;62.22;96718.28;5045809;28;20527;-54
2022/03/12 02:48:38;;;;;;;18.87;15.77;;;;;;;5.63;63.30;96717.28;5045294;28;20214;-53
2022/03/12 02:51:06;;;;;;;19.70;15.27;;;;;;;5.67;63.16;96721.31;5044764;28;20560;-53
2022/03/12 02:53:34;;;;;;;18.27;14.67;;;;;;;5.68;63.19;96715.13;5045182;28;20213;-53
2022/03/12 02:56:00;;;;;;;18.73;15.37;;;;;;;5.60;63.39;96712.22;5045094;28;20207;-53
2022/03/12 02:58:28;;;;;;;17.30;14.73;;;;;;;5.59;63.47;96715.81;5045604;28;20210;-55
2022/03/12 03:00:55;;;;;;;19.23;15.50;;;;;;;5.64;63.45;96712.84;5045050;28;20477;-55
2022/03/12 03:03:21;;;;;;;17.83;15.47;;;;;;;5.66;63.04;96719.66;5045073;28;20227;-55
2022/03/12 03:05:48;;;;;;;19.33;15.63;;;;;;;5.54;64.91;96717.91;5044604;28;20200;-56
2022/03/12 03:08:20;;;;;;;19.40;16.30;;;;;;;5.53;64.95;96713.59;5046569;28;20192;-56
2022/03/12 03:10:50;;;;;;;20.83;16.23;;;;;;;5.53;64.71;96715.41;5063728;28;20202;-54
2022/03/12 03:13:36;;;;;;;19.50;15.57;;;;;;;5.59;63.94;96715.81;5062799;28;20632;-55
2022/03/12 03:16:08;;;;;;;22.43;16.23;;;;;;;5.58;63.90;96721.16;5045892;28;20283;-55
2022/03/12 03:18:37;;;;;;;19.37;15.50;;;;;;;5.60;63.48;96717.47;5057154;28;20200;-56
2022/03/12 03:21:07;;;;;;;21.80;16.13;;;;;;;5.63;63.21;96717.28;5060777;28;20191;-55
2022/03/12 03:23:34;;;;;;;20.17;15.80;;;;;;;5.60;63.59;96717.47;5064846;28;20218;-54
2022/03/12 03:26:01;;;;;;;21.10;16.27;;;;;;;5.65;63.83;96710.09;5044298;28;20224;-56
2022/03/12 03:28:28;;;;;;;20.77;16.17;;;;;;;5.66;63.88;96722.28;5044020;28;20210;-55
2022/03/12 03:30:56;;;;;;;19.77;16.43;;;;;;;5.49;65.13;96731.34;5044523;28;20227;-54
2022/03/12 03:33:25;;;;;;;20.23;16.30;;;;;;;5.58;64.65;96727.25;5045065;28;20227;-55
2022/03/12 03:35:53;;;;;;;19.97;16.50;;;;;;;5.55;65.59;96724.84;5045496;28;20207;-58
2022/03/12 03:38:19;;;;;;;21.57;17.73;;;;;;;5.53;65.51;96738.06;5044487;28;20210;-56
2022/03/12 03:40:47;;;;;;;20.13;16.80;;;;;;;5.58;65.28;96735.09;5044653;28;20534;-57
2022/03/12 03:43:16;;;;;;;20.90;16.80;;;;;;;5.57;65.65;96730.81;5044195;28;20208;-57
2022/03/12 03:45:45;;;;;;;21.80;17.07;;;;;;;5.55;65.38;96735.34;5057014;28;20203;-57
2022/03/12 03:48:15;;;;;;;20.03;17.20;;;;;;;5.58;65.34;96735.09;5062296;28;20195;-53
2022/03/12 03:50:43;;;;;;;20.80;16.50;;;;;;;5.58;66.14;96734.25;5063931;28;20199;-53
2022/03/12 03:53:13;;;;;;;19.90;15.57;;;;;;;5.49;67.32;96738.41;5065356;28;20194;-54
2022/03/12 03:55:41;;;;;;;20.60;16.63;;;;;;;5.56;66.59;96729.16;5066384;28;20202;-54
2022/03/12 03:58:07;;;;;;;21.20;16.80;;;;;;;5.55;66.58;96731.88;5057866;28;20204;-56
2022/03/12 04:00:34;;;;;;;22.53;16.83;;;;;;;5.55;66.44;96745.81;5047696;28;20242;-54
2022/03/12 04:03:04;;;;;;;20.90;16.57;;;;;;;5.54;66.41;96738.91;5065630;28;20176;-56
2022/03/12 04:05:35;;;;;;;23.27;17.83;;;;;;;5.55;66.69;96745.81;5065573;28;20207;-53
2022/03/12 04:08:06;;;;;;;22.67;17.40;;;;;;;5.55;66.72;96745.81;5068104;28;20187;-57
2022/03/12 04:10:32;;;;;;;20.43;16.70;;;;;;;5.54;66.64;96744.16;5044714;28;20208;-56
2022/03/12 04:12:59;;;;;;;21.30;17.13;;;;;;;5.54;66.67;96744.16;5043731;28;20632;-56
2022/03/12 04:15:26;;;;;;;18.40;16.23;;;;;;;5.45;67.59;96747.44;5043413;28;20550;-56
2022/03/12 04:17:53;;;;;;;22.47;16.73;;;;;;;5.45;67.73;96736.94;5043432;28;20207;-55
2022/03/12 04:20:21;;;;;;;21.93;16.60;;;;;;;5.44;67.58;96743.13;5043139;28;20211;-55
2022/03/12 04:22:51;;;;;;;20.77;16.83;;;;;;;5.39;67.07;96740.81;5042680;28;20762;-55
2022/03/12 04:25:19;;;;;;;25.47;17.57;;;;;;;5.40;67.12;96744.28;5043493;28;20286;-55
2022/03/12 04:27:45;;;;;;;25.50;17.27;;;;;;;5.26;67.23;96749.66;5043732;28;20215;-55
2022/03/12 04:30:13;;;;;;;21.40;16.77;;;;;;;5.17;68.80;96755.56;5042080;28;20207;-54
2022/03/12 04:32:41;;;;;;;19.37;16.60;;;;;;;5.28;67.74;96742.56;5043256;28;20238;-54
2022/03/12 04:35:08;;;;;;;18.00;16.07;;;;;;;5.30;67.89;96745.88;5044027;28;20207;-53
2022/03/12 04:37:37;;;;;;;21.30;17.57;;;;;;;5.28;67.98;96748.59;5042865;28;20620;-55
2022/03/12 04:40:08;;;;;;;22.33;16.47;;;;;;;5.30;67.68;96736.25;5042483;28;20199;-53
2022/03/12 04:42:39;;;;;;;20.73;17.20;;;;;;;5.28;67.84;96747.78;5042430;28;20751;-54
2022/03/12 04:45:08;;;;;;;20.17;15.50;;;;;;;5.27;67.65;96754.81;5043356;28;20295;-54
2022/03/12 04:47:36;;;;;;;18.37;15.47;;;;;;;5.16;67.78;96746.88;5042872;28;20196;-55
2022/03/12 04:50:04;;;;;;;22.60;16.63;;;;;;;5.17;67.56;96755.56;5044927;28;20290;-54
2022/03/12 04:52:31;;;;;;;19.67;15.70;;;;;;;5.17;67.64;96756.41;5042727;28;20527;-54
2022/03/12 04:54:58;;;;;;;20.73;16.67;;;;;;;5.15;67.72;96758.28;5041352;28;20273;-54
2022/03/12 04:57:26;;;;;;;27.27;16.70;;;;;;;5.07;68.50;96755.34;5043832;28;20623;-54
2022/03/12 04:59:54;;;;;;;21.13;16.17;;;;;;;5.08;68.04;96757.03;5049621;28;20679;-54
2022/03/12 05:02:20;;;;;;;19.77;16.77;;;;;;;5.09;68.20;96757.88;5042912;28;20199;-54
2022/03/12 05:04:46;;;;;;;21.73;16.23;;;;;;;5.09;68.34;96753.47;5044001;28;20202;-54
2022/03/12 05:07:14;;;;;;;18.90;15.83;;;;;;;5.05;68.34;96762.50;5044664;28;20195;-55
2022/03/12 05:09:41;;;;;;;18.53;15.30;;;;;;;5.06;68.05;96764.19;5042716;28;20257;-54
2022/03/12 05:12:10;;;;;;;20.53;16.47;;;;;;;5.07;68.08;96763.22;5042480;28;20215;-55
2022/03/12 05:14:38;;;;;;;21.33;16.23;;;;;;;5.08;68.52;96766.69;5051464;28;20207;-55
2022/03/12 05:17:08;;;;;;;19.03;15.57;;;;;;;5.11;68.23;96769.09;5070895;28;20187;-54
2022/03/12 05:19:36;;;;;;;21.43;17.00;;;;;;;5.03;69.56;96767.84;5059702;28;20211;-55
2022/03/12 05:22:04;;;;;;;20.70;15.53;;;;;;;5.04;69.22;96771.28;5063407;28;20183;-55
2022/03/12 05:24:32;;;;;;;17.97;14.83;;;;;;;5.05;68.57;96772.13;5071670;28;20203;-54
2022/03/12 05:26:59;;;;;;;19.90;14.73;;;;;;;5.09;68.08;96770.97;5064930;28;20251;-55
2022/03/12 05:29:34;;;;;;;20.00;15.40;;;;;;;5.11;68.43;96774.31;5055590;28;20227;-55
2022/03/12 05:32:05;;;;;;;19.87;15.87;;;;;;;5.11;68.04;96772.53;5044035;28;20238;-55
2022/03/12 05:34:34;;;;;;;18.40;15.07;;;;;;;5.08;68.49;96772.75;5048644;28;20204;-55
2022/03/12 05:37:07;;;;;;;20.43;15.67;;;;;;;5.10;68.30;96770.06;5048484;28;20358;-55
2022/03/12 05:39:34;;;;;;;22.30;15.50;;;;;;;5.06;68.59;96766.81;5043820;28;20204;-55
2022/03/12 05:42:03;;;;;;;18.77;14.47;;;;;;;5.05;68.28;96766.91;5040988;28;20226;-55
2022/03/12 05:44:30;;;;;;;19.57;14.90;;;;;;;5.03;68.38;96780.94;5042918;28;20257;-55
2022/03/12 05:46:59;;;;;;;19.60;15.73;;;;;;;5.08;67.57;96771.91;5042093;28;20632;-55
2022/03/12 05:49:27;;;;;;;20.67;15.40;;;;;;;5.07;68.13;96775.47;5041913;28;20518;-55
2022/03/12 05:51:54;;;;;;;17.00;14.70;;;;;;;5.07;68.65;96778.94;5041929;28;20667;-55
2022/03/12 05:54:21;;;;;;;18.57;14.80;;;;;;;5.09;68.66;96774.44;5050688;28;20203;-54
2022/03/12 05:56:48;;;;;;;20.90;15.80;;;;;;;5.12;68.17;96778.63;5063955;28;20205;-58
2022/03/12 05:59:14;;;;;;;19.97;15.33;;;;;;;5.19;68.01;96793.84;5061109;28;20227;-56
2022/03/12 06:01:41;;;;;;;19.63;15.23;;;;;;;5.23;67.80;96790.06;5042686;28;20215;-55
2022/03/12 06:04:08;;;;;;;20.63;15.93;;;;;;;5.15;69.71;96781.03;5042033;28;20282;-54
2022/03/12 06:06:36;;;;;;;22.40;17.00;;;;;;;5.23;68.06;96794.47;5040065;28;20194;-56
2022/03/12 06:09:07;;;;;;;22.77;15.63;;;;;;;5.30;67.32;96787.84;5042002;28;20199;-55
2022/03/12 06:11:37;;;;;;;20.73;16.17;;;;;;;5.40;66.24;96788.88;5052296;28;20230;-55
2022/03/12 06:14:04;;;;;;;19.37;15.63;;;;;;;5.50;65.89;96784.66;5055956;28;20229;-55
2022/03/12 06:16:33;;;;;;;17.87;14.97;;;;;;;5.60;66.12;96783.03;5056817;28;20226;-56
2022/03/12 06:19:00;;;;;;;18.70;15.53;;;;;;;5.74;66.22;96782.91;5043145;28;20195;-55
2022/03/12 06:21:28;;;;;;;20.53;16.27;;;;;;;5.89;65.13;96789.69;5041051;28;20640;-56
2022/03/12 06:23:58;;;;;;;21.20;16.10;;;;;;;6.02;64.33;96784.41;5042415;28;20219;-55
2022/03/12 06:26:25;;;;;;;20.07;16.13;;;;;;;6.22;63.40;96788.19;5041204;28;20218;-55
2022/03/12 06:28:53;;;;;;;19.90;16.10;;;;;;;6.45;62.59;96784.69;5041434;28;20279;-55
2022/03/12 06:31:22;;;;;;;21.40;15.53;;;;;;;6.68;61.84;96794.34;5041306;28;20220;-55
2022/03/12 06:33:49;;;;;;;22.53;16.93;;;;;;;6.62;61.93;96794.81;5041217;28;20227;-56
2022/03/12 06:36:16;;;;;;;20.20;16.27;;;;;;;6.48;62.46;96800.25;5042804;28;21325;-55
2022/03/12 06:38:42;;;;;;;22.00;16.37;;;;;;;6.73;61.68;96800.06;5040580;28;20232;-55
2022/03/12 06:41:10;;;;;;;22.27;16.40;;;;;;;6.99;61.22;96804.19;5040369;28;20207;-57
2022/03/12 06:43:43;;;;;;;17.60;15.30;;;;;;;7.22;61.28;96801.59;5042037;28;20206;-56
2022/03/12 06:46:14;;;;;;;20.57;16.83;;;;;;;7.36;60.75;96794.31;5041912;28;20195;-55
2022/03/12 06:48:42;;;;;;;19.63;16.57;;;;;;;7.73;60.34;96796.66;5041363;28;20298;-54
2022/03/12 06:51:10;;;;;;;20.90;17.13;;;;;;;8.22;59.31;96806.75;5040334;28;20208;-56
2022/03/12 06:53:36;;;;;;;21.97;17.10;;;;;;;8.49;58.28;96808.00;5041739;28;20563;-57
2022/03/12 06:56:03;;;;;;;18.87;16.07;;;;;;;8.68;56.80;96814.38;5041381;28;20207;-53
2022/03/12 06:58:32;;;;;;;18.97;16.30;;;;;;;9.10;54.98;96817.84;5041671;28;20559;-54
2022/03/12 07:00:58;;;;;;;19.33;15.50;;;;;;;8.96;55.37;96814.56;5041631;28;20207;-55
2022/03/12 07:03:25;;;;;;;21.03;16.60;;;;;;;8.83;54.39;96819.19;5041855;28;20191;-54
2022/03/12 07:05:53;;;;;;;19.27;16.83;;;;;;;8.39;55.38;96811.50;5041243;28;20222;-53
2022/03/12 07:08:20;;;;;;;24.23;15.70;;;;;;;8.39;53.09;96819.41;5042574;28;20195;-54
2022/03/12 07:10:47;;;;;;;23.30;16.83;;;;;;;8.32;53.32;96819.09;5040606;28;20653;-54
2022/03/12 07:13:14;;;;;;;21.03;15.70;;;;;;;8.33;54.99;96820.72;5041540;28;20231;-53
2022/03/12 07:15:42;;;;;;;21.27;17.27;;;;;;;8.44;53.61;96827.75;5041067;28;20211;-56
2022/03/12 07:18:08;;;;;;;21.07;16.97;;;;;;;8.54;52.92;96825.22;5040831;28;20210;-54
2022/03/12 07:20:34;;;;;;;21.50;16.57;;;;;;;8.47;53.29;96827.50;5044576;28;20265;-55
2022/03/12 07:23:01;;;;;;;18.87;16.07;;;;;;;8.53;52.19;96831.47;5057055;28;20207;-55
2022/03/12 07:25:28;;;;;;;19.73;16.63;;;;;;;8.57;50.77;96831.09;5061123;28;20197;-56
2022/03/12 07:27:54;;;;;;;24.77;16.73;;;;;;;8.47;51.66;96832.78;5052253;28;20639;-58
2022/03/12 07:30:23;;;;;;;23.27;16.70;;;;;;;8.48;52.17;96840.56;5044923;28;20211;-59
2022/03/12 07:32:51;;;;;;;19.37;16.10;;;;;;;8.58;51.17;96832.75;5046879;28;20231;-58
2022/03/12 07:35:19;;;;;;;19.43;16.03;;;;;;;8.35;53.29;96842.53;5054625;28;20215;-58
2022/03/12 07:37:49;;;;;;;20.90;16.33;;;;;;;8.52;52.23;96838.53;5061236;28;20206;-57
2022/03/12 07:40:17;;;;;;;18.70;16.07;;;;;;;8.60;51.73;96833.47;5061029;28;20298;-57
2022/03/12 07:42:47;;;;;;;18.50;15.97;;;;;;;8.60;51.88;96833.47;5044437;28;20300;-58
2022/03/12 07:45:13;;;;;;;21.27;16.80;;;;;;;8.70;51.57;96826.47;5044442;28;20209;-57
2022/03/12 07:47:40;;;;;;;21.20;16.73;;;;;;;8.79;51.28;96833.59;5043910;28;20207;-57
2022/03/12 07:50:09;;;;;;;25.50;16.90;;;;;;;8.81;50.73;96828.22;5043185;28;20566;-57
2022/03/12 07:52:38;;;;;;;21.07;16.47;;;;;;;8.76;50.70;96825.94;5066429;28;20223;-58
2022/03/12 07:55:05;;;;;;;18.93;15.87;;;;;;;8.90;49.84;96830.06;5044584;28;20203;-57
2022/03/12 07:57:32;;;;;;;18.37;15.50;;;;;;;8.85;49.94;96821.72;5044069;28;20199;-58
2022/03/12 07:59:59;;;;;;;21.90;16.87;;;;;;;8.90;49.57;96824.78;5043620;28;20591;-57
2022/03/12 08:02:27;;;;;;;20.40;16.47;;;;;;;9.08;49.81;96830.31;5044070;28;20199;-57
2022/03/12 08:04:54;;;;;;;22.00;15.63;;;;;;;8.99;49.68;96826.69;5044905;28;20230;-57
2022/03/12 08:07:24;;;;;;;45.80;18.23;;;;;;;9.15;49.38;96823.56;5044058;28;20226;-58
2022/03/12 08:09:56;;;;;;;22.10;15.97;;;;;;;9.35;49.14;96825.38;5045235;28;20566;-58
2022/03/12 08:12:24;;;;;;;20.50;16.77;;;;;;;9.27;48.34;96822.53;5046469;28;20211;-57
2022/03/12 08:14:51;;;;;;;20.37;16.00;;;;;;;9.41;47.80;96816.91;5055544;28;20207;-58
2022/03/12 08:17:19;;;;;;;17.77;15.80;;;;;;;9.52;47.87;96814.19;5049328;28;20195;-58
2022/03/12 08:19:46;;;;;;;19.70;16.53;;;;;;;9.54;48.24;96811.41;5049933;28;20234;-59
2022/03/12 08:22:13;;;;;;;20.07;16.93;;;;;;;9.64;47.62;96813.13;5050373;28;20207;-59
2022/03/12 08:24:41;;;;;;;22.47;16.90;;;;;;;9.65;47.83;96820.06;5047766;28;20262;-58
2022/03/12 08:27:14;;;;;;;23.13;16.37;;;;;;;9.60;47.88;96817.00;5044347;28;20207;-58
2022/03/12 08:29:41;;;;;;;20.97;16.17;;;;;;;9.70;46.30;96817.88;5043556;28;20203;-60
2022/03/12 08:32:09;;;;;;;19.77;16.43;;;;;;;9.74;46.76;96821.09;5043793;28;20204;-61
2022/03/12 08:34:36;;;;;;;21.37;16.33;;;;;;;9.61;46.14;96821.31;5052425;28;20246;-58
2022/03/12 08:37:03;;;;;;;21.07;15.53;;;;;;;9.72;47.40;96821.22;5058646;28;20200;-58
2022/03/12 08:39:31;;;;;;;21.03;15.77;;;;;;;9.69;47.05;96821.50;5064645;28;20203;-58
2022/03/12 08:42:01;;;;;;;23.23;16.47;;;;;;;9.82;45.84;96814.16;5067306;28;20218;-57
2022/03/12 08:44:28;;;;;;;20.67;16.17;;;;;;;9.92;46.09;96814.19;5054287;28;20567;-58
2022/03/12 08:46:55;;;;;;;20.27;16.23;;;;;;;10.08;45.10;96811.03;5057208;28;20195;-58
2022/03/12 08:49:22;;;;;;;21.50;16.13;;;;;;;10.27;46.31;96811.13;5043676;28;20468;-57
2022/03/12 08:51:49;;;;;;;18.90;15.60;;;;;;;10.18;44.94;96814.56;5043539;28;20216;-58
2022/03/12 08:54:17;;;;;;;18.50;15.57;;;;;;;10.43;45.93;96814.88;5044022;28;20310;-57
2022/03/12 08:56:44;;;;;;;18.60;16.43;;;;;;;10.57;45.31;96816.28;5043051;28;20211;-58
2022/03/12 08:59:15;;;;;;;17.37;15.03;;;;;;;10.66;46.25;96810.16;5042996;28;20254;-58
2022/03/12 09:01:44;;;;;;;19.33;16.43;;;;;;;10.69;44.84;96812.53;5043913;28;20204;-58
2022/03/12 09:04:11;;;;;;;18.87;15.60;;;;;;;10.76;43.42;96813.66;5043219;28;21382;-57
2022/03/12 09:06:38;;;;;;;20.53;15.53;;;;;;;10.89;43.41;96813.34;5043414;28;20549;-57
2022/03/12 09:09:05;;;;;;;20.80;16.63;;;;;;;10.95;42.84;96808.31;5043555;28;20207;-57
2022/03/12 09:11:32;;;;;;;18.80;15.53;;;;;;;11.12;43.06;96817.38;5043460;28;20294;-57
2022/03/12 09:13:59;;;;;;;19.00;15.03;;;;;;;11.25;43.26;96812.59;5046447;28;20227;-57
2022/03/12 09:16:27;;;;;;;16.50;14.70;;;;;;;11.29;42.28;96810.50;5062494;28;20188;-57
2022/03/12 09:18:53;;;;;;;22.10;15.93;;;;;;;11.51;41.62;96815.47;5061845;28;20215;-58
2022/03/12 09:21:20;;;;;;;30.13;14.47;;;;;;;11.78;42.65;96818.16;5052033;28;20199;-58
2022/03/12 09:23:52;;;;;;;22.77;16.60;;;;;;;11.82;40.89;96818.69;5046664;28;20217;-58
2022/03/12 09:26:21;;;;;;;17.57;14.43;;;;;;;12.11;40.04;96816.75;5047743;28;20214;-58
2022/03/12 09:28:49;;;;;;;17.50;14.23;;;;;;;12.31;39.70;96814.81;5045492;28;20212;-57
2022/03/12 09:31:16;;;;;;;17.00;14.13;;;;;;;12.48;38.88;96817.47;5042421;28;20643;-59
2022/03/12 09:33:44;;;;;;;16.37;14.37;;;;;;;12.87;39.28;96820.66;5042714;28;20627;-57
2022/03/12 09:36:11;;;;;;;17.83;14.60;;;;;;;12.97;39.80;96808.13;5040990;28;20199;-58
2022/03/12 09:38:40;;;;;;;18.07;14.67;;;;;;;13.34;38.59;96805.28;5042342;28;20218;-57
2022/03/12 09:41:07;;;;;;;21.37;14.97;;;;;;;13.66;38.28;96803.81;5041412;28;20530;-58
2022/03/12 09:43:35;;;;;;;25.57;15.30;;;;;;;13.47;36.23;96796.91;5042673;28;20242;-57
2022/03/12 09:46:02;;;;;;;17.47;13.90;;;;;;;13.51;35.83;96800.91;5041730;28;20215;-58
2022/03/12 09:48:28;;;;;;;16.83;14.47;;;;;;;13.62;36.46;96792.66;5041575;28;20558;-57
2022/03/12 09:50:56;;;;;;;17.37;13.73;;;;;;;13.87;36.71;96797.13;5042535;28;20590;-58
2022/03/12 09:53:27;;;;;;;18.43;15.67;;;;;;;13.82;36.64;96787.94;5043304;28;20226;-58
2022/03/12 09:55:54;;;;;;;17.47;14.70;;;;;;;13.82;36.37;96785.28;5042400;28;20203;-57
2022/03/12 09:58:21;;;;;;;20.47;15.73;;;;;;;13.75;37.50;96793.06;5042496;28;20207;-59
2022/03/12 10:00:49;;;;;;;22.23;15.70;;;;;;;13.81;37.82;96787.13;5042701;28;20624;-58
2022/03/12 10:03:15;;;;;;;19.73;14.83;;;;;;;14.00;37.47;96791.34;5042647;28;20191;-58
2022/03/12 10:05:42;;;;;;;17.70;15.50;;;;;;;14.02;37.61;96789.38;5041422;28;20248;-58
2022/03/12 10:08:10;;;;;;;17.77;15.43;;;;;;;14.07;37.84;96789.69;5042480;28;21308;-57
2022/03/12 10:10:38;;;;;;;18.73;15.63;;;;;;;14.37;36.56;96788.34;5041775;28;20647;-57
2022/03/12 10:13:05;;;;;;;23.03;16.33;;;;;;;14.15;36.56;96788.91;5042801;28;20231;-57
2022/03/12 10:15:32;;;;;;;17.53;15.63;;;;;;;14.52;36.40;96786.72;5042439;28;20240;-57
2022/03/12 10:17:59;;;;;;;16.87;15.17;;;;;;;14.66;36.67;96783.41;5040907;28;20211;-58
2022/03/12 10:20:25;;;;;;;17.87;15.93;;;;;;;15.09;36.17;96774.22;5041848;28;20199;-56
2022/03/12 10:22:55;;;;;;;16.83;15.03;;;;;;;15.38;36.00;96774.53;5041631;28;20203;-58
2022/03/12 10:25:25;;;;;;;19.20;16.50;;;;;;;15.62;35.48;96765.69;5041853;28;20203;-56
2022/03/12 10:27:52;;;;;;;18.67;16.33;;;;;;;15.90;35.92;96764.28;5042180;28;20197;-57
2022/03/12 10:30:22;;;;;;;18.30;15.45;;;;;;;15.95;34.04;96758.38;5042411;28;20208;-57
2022/03/12 10:32:49;;;;;;;19.40;16.05;;;;;;;15.75;33.55;96757.16;5041006;28;20199;-57
2022/03/12 10:35:19;;;;;;;19.33;16.23;;;;;;;15.56;33.03;96761.03;5041959;28;20210;-57
2022/03/12 10:37:47;;;;;;;18.80;14.85;;;;;;;15.80;33.99;96757.47;5041394;28;20212;-58
2022/03/12 10:40:17;;;;;;;16.92;15.18;;;;;;;15.45;33.89;96748.88;5042457;28;20207;-57
2022/03/12 10:42:52;;;;;;;19.50;17.23;;;;;;;15.67;34.31;96749.16;5042636;28;20207;-56
2022/03/12 10:45:21;;;;;;;18.05;16.15;;;;;;;15.37;33.85;96746.22;5041806;28;20203;-57
2022/03/12 10:47:49;;;;;;;18.42;15.38;;;;;;;15.62;33.27;96747.03;5041781;28;20627;-58
2022/03/12 10:50:20;;;;;;;20.53;15.70;;;;;;;15.64;32.84;96745.03;5042283;28;20207;-58
2022/03/12 10:52:49;;;;;;;20.02;15.15;;;;;;;15.59;33.48;96741.22;5043365;28;20203;-56
2022/03/12 10:55:19;;;;;;;22.20;15.73;;;;;;;15.42;33.87;96740.38;5046112;28;20203;-58
2022/03/12 10:58:00;;;;;;;22.20;15.47;;;;;;;15.63;33.76;96732.69;5059512;28;20176;-56
2022/03/12 11:00:29;;;;;;;17.30;15.15;;;;;;;15.43;32.92;96734.06;5073370;28;20210;-57
2022/03/12 11:02:58;;;;;;;16.58;14.80;;;;;;;15.61;33.39;96736.53;5070590;28;20203;-58
2022/03/12 11:05:28;;;;;;;17.13;15.20;;;;;;;15.69;32.36;96731.19;5064746;28;20224;-58
2022/03/12 11:08:09;;;;;;;16.88;15.07;;;;;;;15.61;32.11;96734.72;5049527;28;20206;-57
2022/03/12 11:10:36;;;;;;;17.70;15.80;;;;;;;15.79;32.18;96735.31;5047391;28;20256;-57
2022/03/12 11:13:05;;;;;;;18.70;15.17;;;;;;;16.10;31.51;96727.31;5048275;28;20232;-57
2022/03/12 11:15:33;;;;;;;16.42;14.32;;;;;;;16.16;32.28;96725.78;5046580;28;20211;-57
2022/03/12 11:18:05;;;;;;;18.90;15.25;;;;;;;16.39;31.57;96719.47;5045582;28;20211;-57
2022/03/12 11:20:37;;;;;;;15.30;13.73;;;;;;;16.21;32.18;96710.06;5045490;28;20203;-58
2022/03/12 11:23:09;;;;;;;18.52;15.57;;;;;;;16.28;30.59;96705.69;5044803;28;20200;-57
2022/03/12 11:25:37;;;;;;;18.42;16.10;;;;;;;16.48;31.94;96706.03;5045451;28;20204;-58
2022/03/12 11:28:18;;;;;;;17.23;15.30;;;;;;;16.58;31.50;96704.03;5046849;28;20220;-58